sensor_id;sensor_type;location;lat;lon;timestamp;P1;durP1;ratioP1;P2;durP2;ratioP2
42670;SDS011;28283;55.426;37.756;2022-09-23T00:00:19;16.35;;;13.00;;
42670;SDS011;28283;55.426;37.756;2022-09-23T00:05:20;23.37;;;14.00;;
42670;SDS011;28283;55.426;37.756;2022-09-23T00:10:21;21.23;;;15.50;;
42670;SDS011;28283;55.426;37.756;2022-09-23T00:15:24;32.58;;;18.48;;
42670;SDS011;28283;55.426;37.756;2022-09-23T00:20:25;43.10;;;24.52;;
42670;SDS011;28283;55.426;37.756;2022-09-23T00:25:27;88.85;;;29.15;;
42670;SDS011;28283;55.426;37.756;2022-09-23T00:30:31;54.42;;;30.00;;
42670;SDS011;28283;55.426;37.756;2022-09-23T00:35:32;57.78;;;32.15;;
42670;SDS011;28283;55.426;37.756;2022-09-23T00:40:32;66.20;;;35.60;;
42670;SDS011;28283;55.426;37.756;2022-09-23T00:45:33;71.38;;;37.00;;
42670;SDS011;28283;55.426;37.756;2022-09-23T00:50:38;65.38;;;33.47;;
42670;SDS011;28283;55.426;37.756;2022-09-23T00:55:43;58.55;;;26.33;;
42670;SDS011;28283;55.426;37.756;2022-09-23T01:00:47;95.00;;;24.23;;
42670;SDS011;28283;55.426;37.756;2022-09-23T01:05:48;38.10;;;24.30;;
42670;SDS011;28283;55.426;37.756;2022-09-23T01:36:54;22.70;;;15.85;;
42670;SDS011;28283;55.426;37.756;2022-09-23T01:42:29;20.90;;;14.02;;
42670;SDS011;28283;55.426;37.756;2022-09-23T01:47:50;18.02;;;13.50;;
42670;SDS011;28283;55.426;37.756;2022-09-23T01:53:12;15.73;;;11.65;;
42670;SDS011;28283;55.426;37.756;2022-09-23T01:58:19;15.40;;;10.73;;
42670;SDS011;28283;55.426;37.756;2022-09-23T02:03:27;14.27;;;10.38;;
42670;SDS011;28283;55.426;37.756;2022-09-23T02:08:34;16.58;;;12.55;;
42670;SDS011;28283;55.426;37.756;2022-09-23T02:13:53;16.65;;;11.93;;
42670;SDS011;28283;55.426;37.756;2022-09-23T02:19:00;17.77;;;12.25;;
42670;SDS011;28283;55.426;37.756;2022-09-23T02:24:16;16.98;;;13.68;;
42670;SDS011;28283;55.426;37.756;2022-09-23T02:35:22;20.30;;;14.93;;
42670;SDS011;28283;55.426;37.756;2022-09-23T02:40:47;22.58;;;16.98;;
42670;SDS011;28283;55.426;37.756;2022-09-23T02:45:56;22.83;;;17.33;;
42670;SDS011;28283;55.426;37.756;2022-09-23T02:50:57;23.23;;;17.60;;
42670;SDS011;28283;55.426;37.756;2022-09-23T02:56:01;24.65;;;18.92;;
42670;SDS011;28283;55.426;37.756;2022-09-23T03:01:22;23.03;;;17.60;;
42670;SDS011;28283;55.426;37.756;2022-09-23T03:06:31;23.33;;;17.95;;
42670;SDS011;28283;55.426;37.756;2022-09-23T03:11:43;17.58;;;15.68;;
42670;SDS011;28283;55.426;37.756;2022-09-23T03:17:01;19.17;;;15.30;;
42670;SDS011;28283;55.426;37.756;2022-09-23T03:22:20;20.98;;;15.80;;
42670;SDS011;28283;55.426;37.756;2022-09-23T03:27:27;23.33;;;15.68;;
42670;SDS011;28283;55.426;37.756;2022-09-23T03:32:31;22.25;;;16.75;;
42670;SDS011;28283;55.426;37.756;2022-09-23T03:42:39;23.92;;;18.63;;
42670;SDS011;28283;55.426;37.756;2022-09-23T03:52:41;25.05;;;17.88;;
42670;SDS011;28283;55.426;37.756;2022-09-23T03:57:42;26.25;;;19.95;;
42670;SDS011;28283;55.426;37.756;2022-09-23T04:02:44;27.25;;;19.67;;
42670;SDS011;28283;55.426;37.756;2022-09-23T04:07:44;22.43;;;18.43;;
42670;SDS011;28283;55.426;37.756;2022-09-23T04:12:45;33.93;;;18.17;;
42670;SDS011;28283;55.426;37.756;2022-09-23T04:17:46;27.20;;;17.17;;
42670;SDS011;28283;55.426;37.756;2022-09-23T04:22:46;28.27;;;19.73;;
42670;SDS011;28283;55.426;37.756;2022-09-23T04:27:47;19.88;;;16.73;;
42670;SDS011;28283;55.426;37.756;2022-09-23T04:32:48;22.47;;;17.07;;
42670;SDS011;28283;55.426;37.756;2022-09-23T04:37:51;20.38;;;15.90;;
42670;SDS011;28283;55.426;37.756;2022-09-23T04:42:52;22.77;;;16.67;;
42670;SDS011;28283;55.426;37.756;2022-09-23T04:47:53;21.20;;;13.90;;
42670;SDS011;28283;55.426;37.756;2022-09-23T04:52:55;18.33;;;13.80;;
42670;SDS011;28283;55.426;37.756;2022-09-23T04:57:55;17.23;;;13.45;;
42670;SDS011;28283;55.426;37.756;2022-09-23T05:02:56;17.25;;;12.23;;
42670;SDS011;28283;55.426;37.756;2022-09-23T05:07:57;16.50;;;12.33;;
42670;SDS011;28283;55.426;37.756;2022-09-23T05:12:58;14.17;;;11.83;;
42670;SDS011;28283;55.426;37.756;2022-09-23T05:17:59;15.30;;;11.80;;
42670;SDS011;28283;55.426;37.756;2022-09-23T05:23:01;15.32;;;11.55;;
42670;SDS011;28283;55.426;37.756;2022-09-23T05:28:02;13.43;;;10.67;;
42670;SDS011;28283;55.426;37.756;2022-09-23T05:33:02;14.83;;;10.60;;
42670;SDS011;28283;55.426;37.756;2022-09-23T05:38:03;13.05;;;9.25;;
42670;SDS011;28283;55.426;37.756;2022-09-23T05:43:04;10.13;;;9.03;;
42670;SDS011;28283;55.426;37.756;2022-09-23T05:48:04;9.30;;;8.07;;
42670;SDS011;28283;55.426;37.756;2022-09-23T05:53:05;9.38;;;8.32;;
42670;SDS011;28283;55.426;37.756;2022-09-23T05:58:06;9.50;;;7.40;;
42670;SDS011;28283;55.426;37.756;2022-09-23T06:03:10;7.97;;;7.10;;
42670;SDS011;28283;55.426;37.756;2022-09-23T06:08:12;5.47;;;4.97;;
42670;SDS011;28283;55.426;37.756;2022-09-23T06:13:13;7.78;;;6.07;;
42670;SDS011;28283;55.426;37.756;2022-09-23T06:18:18;8.77;;;6.70;;
42670;SDS011;28283;55.426;37.756;2022-09-23T06:23:18;8.23;;;6.20;;
42670;SDS011;28283;55.426;37.756;2022-09-23T06:28:19;6.38;;;5.43;;
42670;SDS011;28283;55.426;37.756;2022-09-23T06:33:20;5.30;;;4.80;;
42670;SDS011;28283;55.426;37.756;2022-09-23T06:38:21;8.00;;;5.28;;
42670;SDS011;28283;55.426;37.756;2022-09-23T06:43:22;5.50;;;4.50;;
42670;SDS011;28283;55.426;37.756;2022-09-23T06:48:25;5.45;;;4.90;;
42670;SDS011;28283;55.426;37.756;2022-09-23T06:53:27;6.07;;;4.57;;
42670;SDS011;28283;55.426;37.756;2022-09-23T06:58:32;7.90;;;5.05;;
42670;SDS011;28283;55.426;37.756;2022-09-23T07:03:34;5.85;;;4.55;;
42670;SDS011;28283;55.426;37.756;2022-09-23T07:08:35;7.70;;;4.03;;
42670;SDS011;28283;55.426;37.756;2022-09-23T07:13:36;8.65;;;4.70;;
42670;SDS011;28283;55.426;37.756;2022-09-23T07:18:37;6.57;;;3.63;;
42670;SDS011;28283;55.426;37.756;2022-09-23T07:23:38;4.20;;;3.80;;
42670;SDS011;28283;55.426;37.756;2022-09-23T07:28:39;3.65;;;2.75;;
42670;SDS011;28283;55.426;37.756;2022-09-23T07:33:40;3.03;;;2.40;;
42670;SDS011;28283;55.426;37.756;2022-09-23T07:38:43;3.30;;;3.00;;
42670;SDS011;28283;55.426;37.756;2022-09-23T07:43:45;3.20;;;2.90;;
42670;SDS011;28283;55.426;37.756;2022-09-23T07:48:48;3.90;;;2.95;;
42670;SDS011;28283;55.426;37.756;2022-09-23T07:53:49;5.25;;;3.33;;
42670;SDS011;28283;55.426;37.756;2022-09-23T07:58:54;2.78;;;2.58;;
42670;SDS011;28283;55.426;37.756;2022-09-23T08:04:07;1.90;;;1.70;;
42670;SDS011;28283;55.426;37.756;2022-09-23T08:09:17;2.00;;;1.90;;
42670;SDS011;28283;55.426;37.756;2022-09-23T08:14:19;2.45;;;2.03;;
42670;SDS011;28283;55.426;37.756;2022-09-23T08:19:21;2.92;;;2.25;;
42670;SDS011;28283;55.426;37.756;2022-09-23T08:24:22;2.15;;;1.98;;
42670;SDS011;28283;55.426;37.756;2022-09-23T08:29:25;12.35;;;2.72;;
42670;SDS011;28283;55.426;37.756;2022-09-23T08:34:26;4.20;;;3.10;;
42670;SDS011;28283;55.426;37.756;2022-09-23T08:44:36;5.30;;;2.83;;
42670;SDS011;28283;55.426;37.756;2022-09-23T08:49:52;4.78;;;3.50;;
42670;SDS011;28283;55.426;37.756;2022-09-23T08:54:58;5.53;;;2.88;;
42670;SDS011;28283;55.426;37.756;2022-09-23T09:00:00;4.75;;;3.72;;
42670;SDS011;28283;55.426;37.756;2022-09-23T09:05:05;3.67;;;3.38;;
42670;SDS011;28283;55.426;37.756;2022-09-23T09:10:19;6.97;;;3.40;;
42670;SDS011;28283;55.426;37.756;2022-09-23T09:15:24;3.92;;;3.28;;
42670;SDS011;28283;55.426;37.756;2022-09-23T09:30:46;3.88;;;3.17;;
42670;SDS011;28283;55.426;37.756;2022-09-23T09:36:00;3.08;;;2.70;;
42670;SDS011;28283;55.426;37.756;2022-09-23T09:41:12;5.00;;;2.72;;
42670;SDS011;28283;55.426;37.756;2022-09-23T09:46:25;3.08;;;2.78;;
42670;SDS011;28283;55.426;37.756;2022-09-23T09:57:22;1.90;;;1.80;;
42670;SDS011;28283;55.426;37.756;2022-09-23T10:07:33;6.03;;;2.80;;
42670;SDS011;28283;55.426;37.756;2022-09-23T10:12:41;4.20;;;3.00;;
42670;SDS011;28283;55.426;37.756;2022-09-23T10:17:48;4.03;;;2.50;;
42670;SDS011;28283;55.426;37.756;2022-09-23T10:22:50;6.80;;;3.15;;
42670;SDS011;28283;55.426;37.756;2022-09-23T10:32:53;3.90;;;2.42;;
42670;SDS011;28283;55.426;37.756;2022-09-23T10:37:56;3.15;;;1.65;;
42670;SDS011;28283;55.426;37.756;2022-09-23T10:48:55;3.47;;;1.90;;
42670;SDS011;28283;55.426;37.756;2022-09-23T10:54:19;3.15;;;2.25;;
42670;SDS011;28283;55.426;37.756;2022-09-23T10:59:46;2.25;;;1.77;;
42670;SDS011;28283;55.426;37.756;2022-09-23T11:26:40;6.03;;;2.88;;
42670;SDS011;28283;55.426;37.756;2022-09-23T11:37:23;5.57;;;2.03;;
42670;SDS011;28283;55.426;37.756;2022-09-23T11:42:45;4.72;;;2.65;;
42670;SDS011;28283;55.426;37.756;2022-09-23T11:48:19;9.68;;;3.35;;
42670;SDS011;28283;55.426;37.756;2022-09-23T11:53:43;8.70;;;4.00;;
42670;SDS011;28283;55.426;37.756;2022-09-23T11:58:48;4.70;;;4.30;;
42670;SDS011;28283;55.426;37.756;2022-09-23T12:03:58;3.63;;;3.10;;
42670;SDS011;28283;55.426;37.756;2022-09-23T12:15:07;7.23;;;3.73;;
42670;SDS011;28283;55.426;37.756;2022-09-23T12:25:32;5.45;;;4.75;;
42670;SDS011;28283;55.426;37.756;2022-09-23T12:30:52;6.93;;;5.18;;
42670;SDS011;28283;55.426;37.756;2022-09-23T12:41:36;20.45;;;6.05;;
42670;SDS011;28283;55.426;37.756;2022-09-23T12:46:41;15.23;;;6.70;;
42670;SDS011;28283;55.426;37.756;2022-09-23T12:52:10;13.18;;;6.10;;
42670;SDS011;28283;55.426;37.756;2022-09-23T13:07:39;13.20;;;5.47;;
42670;SDS011;28283;55.426;37.756;2022-09-23T13:12:44;10.10;;;5.28;;
42670;SDS011;28283;55.426;37.756;2022-09-23T13:17:46;7.25;;;4.10;;
42670;SDS011;28283;55.426;37.756;2022-09-23T13:27:54;5.45;;;3.85;;
42670;SDS011;28283;55.426;37.756;2022-09-23T13:38:29;7.20;;;4.80;;
42670;SDS011;28283;55.426;37.756;2022-09-23T13:48:39;11.35;;;4.60;;
42670;SDS011;28283;55.426;37.756;2022-09-23T13:53:42;9.85;;;4.22;;
42670;SDS011;28283;55.426;37.756;2022-09-23T13:58:51;4.20;;;3.50;;
42670;SDS011;28283;55.426;37.756;2022-09-23T14:03:52;5.57;;;4.55;;
42670;SDS011;28283;55.426;37.756;2022-09-23T14:08:53;6.57;;;4.80;;
42670;SDS011;28283;55.426;37.756;2022-09-23T14:13:55;9.43;;;4.53;;
42670;SDS011;28283;55.426;37.756;2022-09-23T14:18:57;7.50;;;5.53;;
42670;SDS011;28283;55.426;37.756;2022-09-23T14:29:27;5.07;;;4.47;;
42670;SDS011;28283;55.426;37.756;2022-09-23T14:34:40;8.10;;;5.90;;
42670;SDS011;28283;55.426;37.756;2022-09-23T14:39:44;7.20;;;5.25;;
42670;SDS011;28283;55.426;37.756;2022-09-23T14:44:49;8.85;;;6.20;;
42670;SDS011;28283;55.426;37.756;2022-09-23T14:49:50;13.90;;;6.45;;
42670;SDS011;28283;55.426;37.756;2022-09-23T14:55:14;11.02;;;8.65;;
42670;SDS011;28283;55.426;37.756;2022-09-23T15:00:17;5.78;;;5.00;;
42670;SDS011;28283;55.426;37.756;2022-09-23T15:05:20;6.13;;;5.55;;
42670;SDS011;28283;55.426;37.756;2022-09-23T15:10:32;8.55;;;5.93;;
42670;SDS011;28283;55.426;37.756;2022-09-23T15:15:36;10.38;;;6.18;;
42670;SDS011;28283;55.426;37.756;2022-09-23T15:20:37;9.40;;;7.75;;
42670;SDS011;28283;55.426;37.756;2022-09-23T15:25:39;9.82;;;7.32;;
42670;SDS011;28283;55.426;37.756;2022-09-23T15:30:40;7.38;;;5.93;;
42670;SDS011;28283;55.426;37.756;2022-09-23T15:35:43;9.03;;;5.07;;
42670;SDS011;28283;55.426;37.756;2022-09-23T15:40:47;10.57;;;5.10;;
42670;SDS011;28283;55.426;37.756;2022-09-23T15:45:51;8.50;;;5.00;;
42670;SDS011;28283;55.426;37.756;2022-09-23T15:50:55;9.98;;;6.35;;
42670;SDS011;28283;55.426;37.756;2022-09-23T15:55:58;12.85;;;7.85;;
42670;SDS011;28283;55.426;37.756;2022-09-23T16:00:59;14.45;;;9.57;;
42670;SDS011;28283;55.426;37.756;2022-09-23T16:06:00;18.73;;;8.25;;
42670;SDS011;28283;55.426;37.756;2022-09-23T16:11:02;16.20;;;8.63;;
42670;SDS011;28283;55.426;37.756;2022-09-23T16:16:05;14.10;;;7.65;;
42670;SDS011;28283;55.426;37.756;2022-09-23T16:21:08;10.38;;;6.22;;
42670;SDS011;28283;55.426;37.756;2022-09-23T16:26:14;11.10;;;6.07;;
42670;SDS011;28283;55.426;37.756;2022-09-23T16:31:17;10.80;;;7.30;;
42670;SDS011;28283;55.426;37.756;2022-09-23T16:41:25;9.52;;;7.10;;
42670;SDS011;28283;55.426;37.756;2022-09-23T16:46:28;14.43;;;7.60;;
42670;SDS011;28283;55.426;37.756;2022-09-23T16:51:31;14.38;;;7.07;;
42670;SDS011;28283;55.426;37.756;2022-09-23T16:56:40;15.82;;;6.78;;
42670;SDS011;28283;55.426;37.756;2022-09-23T17:01:47;10.23;;;6.32;;
42670;SDS011;28283;55.426;37.756;2022-09-23T17:07:09;14.25;;;6.63;;
42670;SDS011;28283;55.426;37.756;2022-09-23T17:12:15;10.67;;;6.33;;
42670;SDS011;28283;55.426;37.756;2022-09-23T17:17:22;12.55;;;5.90;;
42670;SDS011;28283;55.426;37.756;2022-09-23T17:22:23;17.05;;;6.72;;
42670;SDS011;28283;55.426;37.756;2022-09-23T17:27:24;10.88;;;6.68;;
42670;SDS011;28283;55.426;37.756;2022-09-23T17:32:25;20.00;;;7.80;;
42670;SDS011;28283;55.426;37.756;2022-09-23T17:37:30;14.52;;;8.35;;
42670;SDS011;28283;55.426;37.756;2022-09-23T17:42:32;11.48;;;7.05;;
42670;SDS011;28283;55.426;37.756;2022-09-23T17:47:33;12.23;;;6.43;;
42670;SDS011;28283;55.426;37.756;2022-09-23T17:52:34;10.60;;;6.32;;
42670;SDS011;28283;55.426;37.756;2022-09-23T17:57:35;9.90;;;6.68;;
42670;SDS011;28283;55.426;37.756;2022-09-23T18:02:36;12.97;;;7.00;;
42670;SDS011;28283;55.426;37.756;2022-09-23T18:07:37;8.00;;;5.60;;
42670;SDS011;28283;55.426;37.756;2022-09-23T18:12:37;10.20;;;5.83;;
42670;SDS011;28283;55.426;37.756;2022-09-23T18:17:38;11.80;;;6.07;;
42670;SDS011;28283;55.426;37.756;2022-09-23T18:22:38;8.00;;;5.60;;
42670;SDS011;28283;55.426;37.756;2022-09-23T18:27:39;12.63;;;7.18;;
42670;SDS011;28283;55.426;37.756;2022-09-23T18:32:40;11.53;;;7.90;;
42670;SDS011;28283;55.426;37.756;2022-09-23T18:37:41;8.35;;;6.25;;
42670;SDS011;28283;55.426;37.756;2022-09-23T18:42:41;8.70;;;5.10;;
42670;SDS011;28283;55.426;37.756;2022-09-23T18:47:42;7.32;;;4.57;;
42670;SDS011;28283;55.426;37.756;2022-09-23T18:53:02;7.95;;;5.00;;
42670;SDS011;28283;55.426;37.756;2022-09-23T18:58:02;6.00;;;3.72;;
42670;SDS011;28283;55.426;37.756;2022-09-23T19:03:06;9.18;;;4.70;;
42670;SDS011;28283;55.426;37.756;2022-09-23T19:08:07;7.00;;;5.05;;
42670;SDS011;28283;55.426;37.756;2022-09-23T19:13:08;6.72;;;4.65;;
42670;SDS011;28283;55.426;37.756;2022-09-23T19:18:09;5.05;;;4.00;;
42670;SDS011;28283;55.426;37.756;2022-09-23T19:23:09;7.03;;;4.27;;
42670;SDS011;28283;55.426;37.756;2022-09-23T19:28:10;12.40;;;6.45;;
42670;SDS011;28283;55.426;37.756;2022-09-23T19:33:11;10.48;;;7.38;;
42670;SDS011;28283;55.426;37.756;2022-09-23T19:38:11;6.37;;;5.17;;
42670;SDS011;28283;55.426;37.756;2022-09-23T19:43:22;6.68;;;4.55;;
42670;SDS011;28283;55.426;37.756;2022-09-23T19:48:25;7.10;;;5.60;;
42670;SDS011;28283;55.426;37.756;2022-09-23T19:53:26;6.67;;;5.87;;
42670;SDS011;28283;55.426;37.756;2022-09-23T19:58:27;8.27;;;3.80;;
42670;SDS011;28283;55.426;37.756;2022-09-23T20:03:33;7.38;;;4.70;;
42670;SDS011;28283;55.426;37.756;2022-09-23T20:08:37;9.00;;;4.60;;
42670;SDS011;28283;55.426;37.756;2022-09-23T20:13:38;7.07;;;5.00;;
42670;SDS011;28283;55.426;37.756;2022-09-23T20:18:43;8.88;;;4.93;;
42670;SDS011;28283;55.426;37.756;2022-09-23T20:23:45;8.90;;;5.43;;
42670;SDS011;28283;55.426;37.756;2022-09-23T20:28:47;6.80;;;4.50;;
42670;SDS011;28283;55.426;37.756;2022-09-23T20:33:54;9.05;;;5.10;;
42670;SDS011;28283;55.426;37.756;2022-09-23T20:39:00;9.23;;;5.22;;
42670;SDS011;28283;55.426;37.756;2022-09-23T20:44:02;6.68;;;4.57;;
42670;SDS011;28283;55.426;37.756;2022-09-23T20:49:16;8.60;;;4.82;;
42670;SDS011;28283;55.426;37.756;2022-09-23T20:54:18;6.57;;;4.95;;
42670;SDS011;28283;55.426;37.756;2022-09-23T20:59:18;6.35;;;5.03;;
42670;SDS011;28283;55.426;37.756;2022-09-23T21:04:20;7.60;;;5.30;;
42670;SDS011;28283;55.426;37.756;2022-09-23T21:09:21;6.68;;;6.07;;
42670;SDS011;28283;55.426;37.756;2022-09-23T21:14:22;9.93;;;5.68;;
42670;SDS011;28283;55.426;37.756;2022-09-23T21:19:23;15.98;;;6.00;;
42670;SDS011;28283;55.426;37.756;2022-09-23T21:24:24;7.50;;;6.07;;
42670;SDS011;28283;55.426;37.756;2022-09-23T21:29:28;8.90;;;6.47;;
42670;SDS011;28283;55.426;37.756;2022-09-23T21:34:29;6.80;;;6.17;;
42670;SDS011;28283;55.426;37.756;2022-09-23T21:39:31;8.65;;;7.85;;
42670;SDS011;28283;55.426;37.756;2022-09-23T21:44:31;10.03;;;7.90;;
42670;SDS011;28283;55.426;37.756;2022-09-23T21:49:32;11.35;;;8.32;;
42670;SDS011;28283;55.426;37.756;2022-09-23T21:54:33;13.17;;;5.77;;
42670;SDS011;28283;55.426;37.756;2022-09-23T21:59:34;8.00;;;6.53;;
42670;SDS011;28283;55.426;37.756;2022-09-23T22:04:34;7.30;;;6.60;;
42670;SDS011;28283;55.426;37.756;2022-09-23T22:09:35;6.87;;;6.27;;
42670;SDS011;28283;55.426;37.756;2022-09-23T22:14:36;10.85;;;7.57;;
42670;SDS011;28283;55.426;37.756;2022-09-23T22:19:38;7.35;;;6.15;;
42670;SDS011;28283;55.426;37.756;2022-09-23T22:24:39;8.43;;;7.60;;
42670;SDS011;28283;55.426;37.756;2022-09-23T22:29:40;9.38;;;8.38;;
42670;SDS011;28283;55.426;37.756;2022-09-23T22:34:59;10.20;;;7.78;;
42670;SDS011;28283;55.426;37.756;2022-09-23T22:40:00;9.90;;;7.47;;
42670;SDS011;28283;55.426;37.756;2022-09-23T22:45:04;7.15;;;6.45;;
42670;SDS011;28283;55.426;37.756;2022-09-23T22:55:07;5.53;;;5.03;;
42670;SDS011;28283;55.426;37.756;2022-09-23T23:00:08;10.95;;;8.70;;
42670;SDS011;28283;55.426;37.756;2022-09-23T23:05:10;8.15;;;7.22;;
42670;SDS011;28283;55.426;37.756;2022-09-23T23:10:11;8.35;;;6.18;;
42670;SDS011;28283;55.426;37.756;2022-09-23T23:15:14;8.35;;;7.15;;
42670;SDS011;28283;55.426;37.756;2022-09-23T23:20:15;8.88;;;6.72;;
42670;SDS011;28283;55.426;37.756;2022-09-23T23:25:18;10.02;;;8.32;;
42670;SDS011;28283;55.426;37.756;2022-09-23T23:30:19;8.65;;;7.75;;
42670;SDS011;28283;55.426;37.756;2022-09-23T23:35:20;11.10;;;9.95;;
42670;SDS011;28283;55.426;37.756;2022-09-23T23:40:21;11.43;;;8.77;;
42670;SDS011;28283;55.426;37.756;2022-09-23T23:45:24;11.38;;;8.45;;
42670;SDS011;28283;55.426;37.756;2022-09-23T23:50:25;8.27;;;7.18;;
42670;SDS011;28283;55.426;37.756;2022-09-23T23:55:28;9.43;;;7.90;;
